sensor_id;sensor_type;location;lat;lon;timestamp;P1;durP1;ratioP1;P2;durP2;ratioP2
13061;SDS011;6597;52.218;9.882;2023-08-24T00:00:31;15.95;;;4.15;;
13061;SDS011;6597;52.218;9.882;2023-08-24T00:02:58;13.50;;;4.25;;
13061;SDS011;6597;52.218;9.882;2023-08-24T00:05:26;9.75;;;3.88;;
13061;SDS011;6597;52.218;9.882;2023-08-24T00:07:53;12.10;;;4.18;;
13061;SDS011;6597;52.218;9.882;2023-08-24T00:10:19;14.68;;;4.38;;
13061;SDS011;6597;52.218;9.882;2023-08-24T00:12:46;12.40;;;4.72;;
13061;SDS011;6597;52.218;9.882;2023-08-24T00:15:12;8.32;;;4.13;;
13061;SDS011;6597;52.218;9.882;2023-08-24T00:17:39;12.23;;;4.32;;
13061;SDS011;6597;52.218;9.882;2023-08-24T00:20:06;8.48;;;3.85;;
13061;SDS011;6597;52.218;9.882;2023-08-24T00:22:37;15.07;;;4.90;;
13061;SDS011;6597;52.218;9.882;2023-08-24T00:25:04;15.48;;;4.57;;
13061;SDS011;6597;52.218;9.882;2023-08-24T00:27:31;17.05;;;4.57;;
13061;SDS011;6597;52.218;9.882;2023-08-24T00:29:58;16.15;;;4.55;;
13061;SDS011;6597;52.218;9.882;2023-08-24T00:32:25;14.50;;;4.95;;
13061;SDS011;6597;52.218;9.882;2023-08-24T00:34:52;11.38;;;4.50;;
13061;SDS011;6597;52.218;9.882;2023-08-24T00:37:19;14.73;;;4.70;;
13061;SDS011;6597;52.218;9.882;2023-08-24T00:39:47;14.52;;;4.95;;
13061;SDS011;6597;52.218;9.882;2023-08-24T00:42:13;14.55;;;4.95;;
13061;SDS011;6597;52.218;9.882;2023-08-24T00:44:40;11.75;;;4.93;;
13061;SDS011;6597;52.218;9.882;2023-08-24T00:47:08;13.85;;;5.40;;
13061;SDS011;6597;52.218;9.882;2023-08-24T00:49:35;18.00;;;6.13;;
13061;SDS011;6597;52.218;9.882;2023-08-24T00:52:02;15.80;;;5.80;;
13061;SDS011;6597;52.218;9.882;2023-08-24T00:54:29;16.70;;;5.32;;
13061;SDS011;6597;52.218;9.882;2023-08-24T00:56:57;16.35;;;5.65;;
13061;SDS011;6597;52.218;9.882;2023-08-24T00:59:24;14.85;;;5.10;;
13061;SDS011;6597;52.218;9.882;2023-08-24T01:01:50;17.80;;;5.68;;
13061;SDS011;6597;52.218;9.882;2023-08-24T01:04:17;13.55;;;5.40;;
13061;SDS011;6597;52.218;9.882;2023-08-24T01:06:44;13.10;;;5.63;;
13061;SDS011;6597;52.218;9.882;2023-08-24T01:09:11;18.75;;;5.72;;
13061;SDS011;6597;52.218;9.882;2023-08-24T01:11:41;12.85;;;5.40;;
13061;SDS011;6597;52.218;9.882;2023-08-24T01:14:20;14.43;;;5.85;;
13061;SDS011;6597;52.218;9.882;2023-08-24T01:16:50;19.02;;;6.80;;
13061;SDS011;6597;52.218;9.882;2023-08-24T01:19:25;19.67;;;6.30;;
13061;SDS011;6597;52.218;9.882;2023-08-24T01:22:03;23.42;;;6.60;;
13061;SDS011;6597;52.218;9.882;2023-08-24T01:24:36;17.10;;;6.13;;
13061;SDS011;6597;52.218;9.882;2023-08-24T01:27:07;18.38;;;6.45;;
13061;SDS011;6597;52.218;9.882;2023-08-24T01:29:36;18.42;;;6.60;;
13061;SDS011;6597;52.218;9.882;2023-08-24T01:32:05;17.98;;;6.68;;
13061;SDS011;6597;52.218;9.882;2023-08-24T01:34:36;16.10;;;6.30;;
13061;SDS011;6597;52.218;9.882;2023-08-24T01:37:03;21.50;;;6.68;;
13061;SDS011;6597;52.218;9.882;2023-08-24T01:39:31;19.08;;;6.57;;
13061;SDS011;6597;52.218;9.882;2023-08-24T01:42:07;13.50;;;5.65;;
13061;SDS011;6597;52.218;9.882;2023-08-24T01:44:42;21.40;;;6.80;;
13061;SDS011;6597;52.218;9.882;2023-08-24T01:47:14;18.73;;;6.25;;
13061;SDS011;6597;52.218;9.882;2023-08-24T01:49:41;15.90;;;6.13;;
13061;SDS011;6597;52.218;9.882;2023-08-24T01:52:09;24.35;;;7.55;;
13061;SDS011;6597;52.218;9.882;2023-08-24T01:54:36;19.42;;;6.65;;
13061;SDS011;6597;52.218;9.882;2023-08-24T01:57:04;25.60;;;7.40;;
13061;SDS011;6597;52.218;9.882;2023-08-24T01:59:32;15.00;;;6.60;;
13061;SDS011;6597;52.218;9.882;2023-08-24T02:01:59;21.38;;;6.72;;
13061;SDS011;6597;52.218;9.882;2023-08-24T02:04:25;22.25;;;6.75;;
13061;SDS011;6597;52.218;9.882;2023-08-24T02:06:52;26.67;;;6.93;;
13061;SDS011;6597;52.218;9.882;2023-08-24T02:09:18;21.67;;;6.63;;
13061;SDS011;6597;52.218;9.882;2023-08-24T02:11:45;24.25;;;7.30;;
13061;SDS011;6597;52.218;9.882;2023-08-24T02:14:11;19.48;;;6.72;;
13061;SDS011;6597;52.218;9.882;2023-08-24T02:16:39;21.30;;;7.03;;
13061;SDS011;6597;52.218;9.882;2023-08-24T02:19:06;21.08;;;7.22;;
13061;SDS011;6597;52.218;9.882;2023-08-24T02:21:34;21.35;;;6.80;;
13061;SDS011;6597;52.218;9.882;2023-08-24T02:24:01;22.50;;;6.60;;
13061;SDS011;6597;52.218;9.882;2023-08-24T02:26:30;17.50;;;6.43;;
13061;SDS011;6597;52.218;9.882;2023-08-24T02:28:56;26.27;;;7.27;;
13061;SDS011;6597;52.218;9.882;2023-08-24T02:31:23;23.52;;;6.90;;
13061;SDS011;6597;52.218;9.882;2023-08-24T02:33:51;22.73;;;6.67;;
13061;SDS011;6597;52.218;9.882;2023-08-24T02:36:18;21.57;;;6.40;;
13061;SDS011;6597;52.218;9.882;2023-08-24T02:38:44;22.08;;;6.57;;
13061;SDS011;6597;52.218;9.882;2023-08-24T02:41:11;23.93;;;6.80;;
13061;SDS011;6597;52.218;9.882;2023-08-24T02:43:40;25.17;;;6.93;;
13061;SDS011;6597;52.218;9.882;2023-08-24T02:46:07;22.33;;;6.80;;
13061;SDS011;6597;52.218;9.882;2023-08-24T02:48:34;29.75;;;6.97;;
13061;SDS011;6597;52.218;9.882;2023-08-24T02:51:03;15.83;;;6.43;;
13061;SDS011;6597;52.218;9.882;2023-08-24T02:53:31;24.13;;;6.83;;
13061;SDS011;6597;52.218;9.882;2023-08-24T02:55:59;23.23;;;6.63;;
13061;SDS011;6597;52.218;9.882;2023-08-24T02:58:26;24.57;;;7.13;;
13061;SDS011;6597;52.218;9.882;2023-08-24T03:00:53;22.63;;;6.70;;
13061;SDS011;6597;52.218;9.882;2023-08-24T03:03:19;22.90;;;6.43;;
13061;SDS011;6597;52.218;9.882;2023-08-24T03:05:53;26.67;;;6.70;;
13061;SDS011;6597;52.218;9.882;2023-08-24T03:08:22;16.67;;;6.20;;
13061;SDS011;6597;52.218;9.882;2023-08-24T03:10:49;27.80;;;6.40;;
13061;SDS011;6597;52.218;9.882;2023-08-24T03:13:16;23.97;;;6.40;;
13061;SDS011;6597;52.218;9.882;2023-08-24T03:15:42;21.93;;;6.07;;
13061;SDS011;6597;52.218;9.882;2023-08-24T03:18:11;14.90;;;5.33;;
13061;SDS011;6597;52.218;9.882;2023-08-24T03:20:39;15.73;;;5.90;;
13061;SDS011;6597;52.218;9.882;2023-08-24T03:23:05;26.50;;;5.97;;
13061;SDS011;6597;52.218;9.882;2023-08-24T03:25:36;27.20;;;6.60;;
13061;SDS011;6597;52.218;9.882;2023-08-24T03:28:04;22.00;;;5.37;;
13061;SDS011;6597;52.218;9.882;2023-08-24T03:30:32;34.37;;;6.70;;
13061;SDS011;6597;52.218;9.882;2023-08-24T03:32:59;23.40;;;6.57;;
13061;SDS011;6597;52.218;9.882;2023-08-24T03:35:26;23.40;;;6.67;;
13061;SDS011;6597;52.218;9.882;2023-08-24T03:37:52;28.27;;;7.20;;
13061;SDS011;6597;52.218;9.882;2023-08-24T03:40:19;32.07;;;7.23;;
13061;SDS011;6597;52.218;9.882;2023-08-24T03:42:47;22.67;;;6.80;;
13061;SDS011;6597;52.218;9.882;2023-08-24T03:45:14;28.50;;;6.80;;
13061;SDS011;6597;52.218;9.882;2023-08-24T03:47:41;22.10;;;6.83;;
13061;SDS011;6597;52.218;9.882;2023-08-24T03:50:07;28.53;;;7.90;;
13061;SDS011;6597;52.218;9.882;2023-08-24T03:52:34;25.23;;;7.40;;
13061;SDS011;6597;52.218;9.882;2023-08-24T03:55:01;31.33;;;7.57;;
13061;SDS011;6597;52.218;9.882;2023-08-24T03:57:27;27.33;;;7.13;;
13061;SDS011;6597;52.218;9.882;2023-08-24T03:59:55;24.17;;;7.13;;
13061;SDS011;6597;52.218;9.882;2023-08-24T04:02:22;24.97;;;7.20;;
13061;SDS011;6597;52.218;9.882;2023-08-24T04:04:50;30.33;;;7.23;;
13061;SDS011;6597;52.218;9.882;2023-08-24T04:07:16;33.73;;;8.20;;
13061;SDS011;6597;52.218;9.882;2023-08-24T04:09:46;26.57;;;8.40;;
13061;SDS011;6597;52.218;9.882;2023-08-24T04:12:13;29.57;;;8.00;;
13061;SDS011;6597;52.218;9.882;2023-08-24T04:14:39;26.73;;;7.70;;
13061;SDS011;6597;52.218;9.882;2023-08-24T04:17:07;30.13;;;8.83;;
13061;SDS011;6597;52.218;9.882;2023-08-24T04:19:37;27.90;;;8.23;;
13061;SDS011;6597;52.218;9.882;2023-08-24T04:22:04;32.50;;;8.47;;
13061;SDS011;6597;52.218;9.882;2023-08-24T04:24:30;24.70;;;8.13;;
13061;SDS011;6597;52.218;9.882;2023-08-24T04:26:57;26.50;;;8.30;;
13061;SDS011;6597;52.218;9.882;2023-08-24T04:29:23;33.60;;;8.37;;
13061;SDS011;6597;52.218;9.882;2023-08-24T04:31:50;28.23;;;8.67;;
13061;SDS011;6597;52.218;9.882;2023-08-24T04:34:18;30.70;;;8.40;;
13061;SDS011;6597;52.218;9.882;2023-08-24T04:36:44;22.27;;;8.40;;
13061;SDS011;6597;52.218;9.882;2023-08-24T04:39:11;32.87;;;9.30;;
13061;SDS011;6597;52.218;9.882;2023-08-24T04:41:37;20.63;;;8.47;;
13061;SDS011;6597;52.218;9.882;2023-08-24T04:44:04;30.27;;;9.20;;
13061;SDS011;6597;52.218;9.882;2023-08-24T04:46:33;33.83;;;9.47;;
13061;SDS011;6597;52.218;9.882;2023-08-24T04:48:59;32.20;;;9.50;;
13061;SDS011;6597;52.218;9.882;2023-08-24T04:51:27;28.63;;;9.03;;
13061;SDS011;6597;52.218;9.882;2023-08-24T04:53:54;24.93;;;9.40;;
13061;SDS011;6597;52.218;9.882;2023-08-24T04:56:21;24.97;;;9.87;;
13061;SDS011;6597;52.218;9.882;2023-08-24T04:58:53;21.60;;;9.50;;
13061;SDS011;6597;52.218;9.882;2023-08-24T05:01:22;31.37;;;10.37;;
13061;SDS011;6597;52.218;9.882;2023-08-24T05:03:50;31.30;;;10.30;;
13061;SDS011;6597;52.218;9.882;2023-08-24T05:06:16;31.77;;;10.37;;
13061;SDS011;6597;52.218;9.882;2023-08-24T05:08:44;31.53;;;10.90;;
13061;SDS011;6597;52.218;9.882;2023-08-24T05:11:11;31.80;;;10.40;;
13061;SDS011;6597;52.218;9.882;2023-08-24T05:13:38;32.43;;;10.53;;
13061;SDS011;6597;52.218;9.882;2023-08-24T05:16:05;26.10;;;10.17;;
13061;SDS011;6597;52.218;9.882;2023-08-24T05:18:33;32.33;;;10.90;;
13061;SDS011;6597;52.218;9.882;2023-08-24T05:21:00;29.47;;;10.30;;
13061;SDS011;6597;52.218;9.882;2023-08-24T05:23:26;18.60;;;10.55;;
13061;SDS011;6597;52.218;9.882;2023-08-24T05:25:54;31.38;;;11.15;;
13061;SDS011;6597;52.218;9.882;2023-08-24T05:28:22;29.10;;;10.97;;
13061;SDS011;6597;52.218;9.882;2023-08-24T05:30:49;35.60;;;12.17;;
13061;SDS011;6597;52.218;9.882;2023-08-24T05:33:17;27.77;;;10.63;;
13061;SDS011;6597;52.218;9.882;2023-08-24T05:35:43;20.97;;;11.43;;
13061;SDS011;6597;52.218;9.882;2023-08-24T05:38:10;22.83;;;10.60;;
13061;SDS011;6597;52.218;9.882;2023-08-24T05:40:36;25.30;;;10.27;;
13061;SDS011;6597;52.218;9.882;2023-08-24T05:43:05;25.48;;;11.07;;
13061;SDS011;6597;52.218;9.882;2023-08-24T05:45:32;25.40;;;11.10;;
13061;SDS011;6597;52.218;9.882;2023-08-24T05:47:58;23.50;;;10.68;;
13061;SDS011;6597;52.218;9.882;2023-08-24T05:50:25;26.52;;;11.07;;
13061;SDS011;6597;52.218;9.882;2023-08-24T05:52:51;26.27;;;10.75;;
13061;SDS011;6597;52.218;9.882;2023-08-24T05:55:18;24.92;;;10.40;;
13061;SDS011;6597;52.218;9.882;2023-08-24T05:57:44;31.17;;;11.07;;
13061;SDS011;6597;52.218;9.882;2023-08-24T06:00:13;29.83;;;10.88;;
13061;SDS011;6597;52.218;9.882;2023-08-24T06:02:41;25.35;;;10.15;;
13061;SDS011;6597;52.218;9.882;2023-08-24T06:05:08;24.35;;;10.73;;
13061;SDS011;6597;52.218;9.882;2023-08-24T06:07:36;24.10;;;10.00;;
13061;SDS011;6597;52.218;9.882;2023-08-24T06:10:03;23.30;;;10.40;;
13061;SDS011;6597;52.218;9.882;2023-08-24T06:12:30;30.88;;;11.20;;
13061;SDS011;6597;52.218;9.882;2023-08-24T06:14:57;25.73;;;10.98;;
13061;SDS011;6597;52.218;9.882;2023-08-24T06:17:25;27.80;;;11.68;;
13061;SDS011;6597;52.218;9.882;2023-08-24T06:19:51;19.60;;;10.27;;
13061;SDS011;6597;52.218;9.882;2023-08-24T06:22:18;26.15;;;10.98;;
13061;SDS011;6597;52.218;9.882;2023-08-24T06:24:44;19.38;;;10.23;;
13061;SDS011;6597;52.218;9.882;2023-08-24T06:27:11;20.08;;;10.40;;
13061;SDS011;6597;52.218;9.882;2023-08-24T06:29:37;25.33;;;10.82;;
13061;SDS011;6597;52.218;9.882;2023-08-24T06:32:08;29.50;;;11.30;;
13061;SDS011;6597;52.218;9.882;2023-08-24T06:34:36;26.10;;;10.85;;
13061;SDS011;6597;52.218;9.882;2023-08-24T06:37:02;25.52;;;10.90;;
13061;SDS011;6597;52.218;9.882;2023-08-24T06:39:29;26.88;;;11.18;;
13061;SDS011;6597;52.218;9.882;2023-08-24T06:41:55;31.58;;;10.98;;
13061;SDS011;6597;52.218;9.882;2023-08-24T06:44:24;21.58;;;10.35;;
13061;SDS011;6597;52.218;9.882;2023-08-24T06:46:51;27.80;;;11.32;;
13061;SDS011;6597;52.218;9.882;2023-08-24T06:49:17;29.42;;;11.48;;
13061;SDS011;6597;52.218;9.882;2023-08-24T06:51:46;30.55;;;11.40;;
13061;SDS011;6597;52.218;9.882;2023-08-24T06:54:13;20.77;;;9.75;;
13061;SDS011;6597;52.218;9.882;2023-08-24T06:56:40;33.40;;;13.13;;
13061;SDS011;6597;52.218;9.882;2023-08-24T06:59:08;21.52;;;10.63;;
13061;SDS011;6597;52.218;9.882;2023-08-24T07:01:38;22.27;;;10.55;;
13061;SDS011;6597;52.218;9.882;2023-08-24T07:04:04;29.63;;;11.57;;
13061;SDS011;6597;52.218;9.882;2023-08-24T07:06:32;26.70;;;11.93;;
13061;SDS011;6597;52.218;9.882;2023-08-24T07:09:00;32.13;;;11.90;;
13061;SDS011;6597;52.218;9.882;2023-08-24T07:11:31;28.88;;;11.25;;
13061;SDS011;6597;52.218;9.882;2023-08-24T07:13:58;25.63;;;10.80;;
13061;SDS011;6597;52.218;9.882;2023-08-24T07:16:24;26.40;;;10.63;;
13061;SDS011;6597;52.218;9.882;2023-08-24T07:18:51;25.80;;;10.73;;
13061;SDS011;6597;52.218;9.882;2023-08-24T07:21:18;22.58;;;10.65;;
13061;SDS011;6597;52.218;9.882;2023-08-24T07:23:44;26.65;;;10.77;;
13061;SDS011;6597;52.218;9.882;2023-08-24T07:26:12;28.65;;;11.27;;
13061;SDS011;6597;52.218;9.882;2023-08-24T07:28:39;19.63;;;10.07;;
13061;SDS011;6597;52.218;9.882;2023-08-24T07:31:08;17.25;;;9.13;;
13061;SDS011;6597;52.218;9.882;2023-08-24T07:33:36;26.58;;;10.70;;
13061;SDS011;6597;52.218;9.882;2023-08-24T07:36:04;27.15;;;9.27;;
13061;SDS011;6597;52.218;9.882;2023-08-24T07:38:31;19.67;;;9.10;;
13061;SDS011;6597;52.218;9.882;2023-08-24T07:40:58;19.80;;;7.97;;
13061;SDS011;6597;52.218;9.882;2023-08-24T07:43:26;15.63;;;7.93;;
13061;SDS011;6597;52.218;9.882;2023-08-24T07:45:52;12.32;;;7.45;;
13061;SDS011;6597;52.218;9.882;2023-08-24T07:48:20;15.38;;;7.63;;
13061;SDS011;6597;52.218;9.882;2023-08-24T07:50:46;13.43;;;7.00;;
13061;SDS011;6597;52.218;9.882;2023-08-24T07:53:13;17.15;;;6.85;;
13061;SDS011;6597;52.218;9.882;2023-08-24T07:55:39;27.08;;;7.78;;
13061;SDS011;6597;52.218;9.882;2023-08-24T07:58:06;42.17;;;8.77;;
13061;SDS011;6597;52.218;9.882;2023-08-24T08:00:34;31.40;;;8.18;;
13061;SDS011;6597;52.218;9.882;2023-08-24T08:03:01;45.92;;;9.25;;
13061;SDS011;6597;52.218;9.882;2023-08-24T08:05:27;33.25;;;7.75;;
13061;SDS011;6597;52.218;9.882;2023-08-24T08:07:54;20.85;;;7.43;;
13061;SDS011;6597;52.218;9.882;2023-08-24T08:10:20;18.33;;;7.28;;
13061;SDS011;6597;52.218;9.882;2023-08-24T08:12:47;18.90;;;7.18;;
13061;SDS011;6597;52.218;9.882;2023-08-24T08:15:13;13.80;;;7.13;;
13061;SDS011;6597;52.218;9.882;2023-08-24T08:17:41;13.88;;;6.60;;
13061;SDS011;6597;52.218;9.882;2023-08-24T08:20:08;16.95;;;7.28;;
13061;SDS011;6597;52.218;9.882;2023-08-24T08:22:37;12.02;;;5.85;;
13061;SDS011;6597;52.218;9.882;2023-08-24T08:25:04;13.90;;;6.13;;
13061;SDS011;6597;52.218;9.882;2023-08-24T08:27:31;15.30;;;5.97;;
13061;SDS011;6597;52.218;9.882;2023-08-24T08:29:58;12.30;;;6.13;;
13061;SDS011;6597;52.218;9.882;2023-08-24T08:32:25;14.65;;;5.82;;
13061;SDS011;6597;52.218;9.882;2023-08-24T08:34:54;13.02;;;6.18;;
13061;SDS011;6597;52.218;9.882;2023-08-24T08:37:22;13.13;;;5.65;;
13061;SDS011;6597;52.218;9.882;2023-08-24T08:39:48;14.35;;;5.85;;
13061;SDS011;6597;52.218;9.882;2023-08-24T08:42:15;12.40;;;5.90;;
13061;SDS011;6597;52.218;9.882;2023-08-24T08:44:42;7.78;;;4.53;;
13061;SDS011;6597;52.218;9.882;2023-08-24T08:47:11;8.07;;;4.95;;
13061;SDS011;6597;52.218;9.882;2023-08-24T08:49:39;5.88;;;4.82;;
13061;SDS011;6597;52.218;9.882;2023-08-24T08:52:10;5.55;;;4.75;;
13061;SDS011;6597;52.218;9.882;2023-08-24T08:54:37;8.68;;;5.47;;
13061;SDS011;6597;52.218;9.882;2023-08-24T08:57:05;8.80;;;4.78;;
13061;SDS011;6597;52.218;9.882;2023-08-24T08:59:32;9.30;;;5.57;;
13061;SDS011;6597;52.218;9.882;2023-08-24T09:02:00;8.25;;;5.28;;
13061;SDS011;6597;52.218;9.882;2023-08-24T09:04:27;6.75;;;5.38;;
13061;SDS011;6597;52.218;9.882;2023-08-24T09:06:56;9.48;;;5.60;;
13061;SDS011;6597;52.218;9.882;2023-08-24T09:09:24;15.65;;;6.05;;
13061;SDS011;6597;52.218;9.882;2023-08-24T09:11:52;14.93;;;5.55;;
13061;SDS011;6597;52.218;9.882;2023-08-24T09:14:19;11.73;;;5.55;;
13061;SDS011;6597;52.218;9.882;2023-08-24T09:16:45;10.82;;;6.35;;
13061;SDS011;6597;52.218;9.882;2023-08-24T09:19:12;13.43;;;5.75;;
13061;SDS011;6597;52.218;9.882;2023-08-24T09:21:39;15.15;;;5.95;;
13061;SDS011;6597;52.218;9.882;2023-08-24T09:24:07;13.90;;;6.10;;
13061;SDS011;6597;52.218;9.882;2023-08-24T09:26:36;15.25;;;6.60;;
13061;SDS011;6597;52.218;9.882;2023-08-24T09:29:11;15.85;;;6.18;;
13061;SDS011;6597;52.218;9.882;2023-08-24T09:31:39;16.35;;;5.72;;
13061;SDS011;6597;52.218;9.882;2023-08-24T09:34:06;18.10;;;5.53;;
13061;SDS011;6597;52.218;9.882;2023-08-24T09:36:33;19.42;;;7.07;;
13061;SDS011;6597;52.218;9.882;2023-08-24T09:39:00;24.58;;;5.68;;
13061;SDS011;6597;52.218;9.882;2023-08-24T09:41:40;26.65;;;6.45;;
13061;SDS011;6597;52.218;9.882;2023-08-24T09:44:08;26.92;;;5.50;;
13061;SDS011;6597;52.218;9.882;2023-08-24T09:46:35;38.88;;;8.43;;
13061;SDS011;6597;52.218;9.882;2023-08-24T09:49:04;22.48;;;6.32;;
13061;SDS011;6597;52.218;9.882;2023-08-24T09:51:31;18.67;;;5.93;;
13061;SDS011;6597;52.218;9.882;2023-08-24T09:53:59;9.05;;;4.95;;
13061;SDS011;6597;52.218;9.882;2023-08-24T09:56:31;19.00;;;5.60;;
13061;SDS011;6597;52.218;9.882;2023-08-24T09:59:04;15.70;;;5.70;;
13061;SDS011;6597;52.218;9.882;2023-08-24T10:01:36;13.60;;;5.43;;
13061;SDS011;6597;52.218;9.882;2023-08-24T10:04:03;12.70;;;5.25;;
13061;SDS011;6597;52.218;9.882;2023-08-24T10:06:32;7.68;;;4.55;;
13061;SDS011;6597;52.218;9.882;2023-08-24T10:09:02;11.07;;;5.07;;
13061;SDS011;6597;52.218;9.882;2023-08-24T10:11:34;14.30;;;5.15;;
13061;SDS011;6597;52.218;9.882;2023-08-24T10:14:07;17.40;;;5.25;;
13061;SDS011;6597;52.218;9.882;2023-08-24T10:16:38;14.40;;;5.65;;
13061;SDS011;6597;52.218;9.882;2023-08-24T10:19:06;12.90;;;5.63;;
13061;SDS011;6597;52.218;9.882;2023-08-24T10:21:33;11.63;;;5.03;;
13061;SDS011;6597;52.218;9.882;2023-08-24T10:24:03;13.15;;;5.05;;
13061;SDS011;6597;52.218;9.882;2023-08-24T10:26:30;12.35;;;5.45;;
13061;SDS011;6597;52.218;9.882;2023-08-24T10:28:58;11.68;;;5.40;;
13061;SDS011;6597;52.218;9.882;2023-08-24T10:31:27;9.05;;;5.22;;
13061;SDS011;6597;52.218;9.882;2023-08-24T10:33:54;10.65;;;5.35;;
13061;SDS011;6597;52.218;9.882;2023-08-24T10:36:22;15.10;;;5.38;;
13061;SDS011;6597;52.218;9.882;2023-08-24T10:38:51;10.50;;;5.35;;
13061;SDS011;6597;52.218;9.882;2023-08-24T10:41:25;16.55;;;5.60;;
13061;SDS011;6597;52.218;9.882;2023-08-24T10:43:52;14.07;;;5.10;;
13061;SDS011;6597;52.218;9.882;2023-08-24T10:46:35;11.25;;;5.68;;
13061;SDS011;6597;52.218;9.882;2023-08-24T10:49:03;10.30;;;5.22;;
13061;SDS011;6597;52.218;9.882;2023-08-24T10:51:30;12.75;;;5.50;;
13061;SDS011;6597;52.218;9.882;2023-08-24T10:53:57;12.07;;;5.30;;
13061;SDS011;6597;52.218;9.882;2023-08-24T10:56:31;15.30;;;5.85;;
13061;SDS011;6597;52.218;9.882;2023-08-24T10:59:10;12.18;;;5.45;;
13061;SDS011;6597;52.218;9.882;2023-08-24T11:01:43;38.00;;;20.52;;
13061;SDS011;6597;52.218;9.882;2023-08-24T11:04:20;31.67;;;21.52;;
13061;SDS011;6597;52.218;9.882;2023-08-24T11:06:53;34.20;;;19.98;;
13061;SDS011;6597;52.218;9.882;2023-08-24T11:09:21;12.85;;;7.22;;
13061;SDS011;6597;52.218;9.882;2023-08-24T11:11:55;10.68;;;5.07;;
13061;SDS011;6597;52.218;9.882;2023-08-24T11:14:22;12.25;;;5.40;;
13061;SDS011;6597;52.218;9.882;2023-08-24T11:16:52;13.70;;;5.18;;
13061;SDS011;6597;52.218;9.882;2023-08-24T11:19:20;12.25;;;4.88;;
13061;SDS011;6597;52.218;9.882;2023-08-24T11:21:47;16.83;;;5.40;;
13061;SDS011;6597;52.218;9.882;2023-08-24T11:24:13;12.88;;;4.72;;
13061;SDS011;6597;52.218;9.882;2023-08-24T11:26:41;16.65;;;5.50;;
13061;SDS011;6597;52.218;9.882;2023-08-24T11:29:08;11.05;;;4.32;;
13061;SDS011;6597;52.218;9.882;2023-08-24T11:31:35;13.68;;;5.15;;
13061;SDS011;6597;52.218;9.882;2023-08-24T11:34:03;5.78;;;3.65;;
13061;SDS011;6597;52.218;9.882;2023-08-24T11:36:31;5.30;;;3.65;;
13061;SDS011;6597;52.218;9.882;2023-08-24T11:38:58;5.13;;;3.75;;
13061;SDS011;6597;52.218;9.882;2023-08-24T11:41:26;5.70;;;3.53;;
13061;SDS011;6597;52.218;9.882;2023-08-24T11:43:59;4.70;;;3.63;;
13061;SDS011;6597;52.218;9.882;2023-08-24T11:46:28;7.90;;;4.88;;
13061;SDS011;6597;52.218;9.882;2023-08-24T11:48:56;6.03;;;3.78;;
13061;SDS011;6597;52.218;9.882;2023-08-24T11:51:25;7.40;;;3.92;;
13061;SDS011;6597;52.218;9.882;2023-08-24T11:53:52;6.88;;;3.78;;
13061;SDS011;6597;52.218;9.882;2023-08-24T11:56:19;6.68;;;3.90;;
13061;SDS011;6597;52.218;9.882;2023-08-24T11:58:47;6.10;;;3.60;;
13061;SDS011;6597;52.218;9.882;2023-08-24T12:01:16;6.32;;;3.75;;
13061;SDS011;6597;52.218;9.882;2023-08-24T12:03:43;4.03;;;3.35;;
13061;SDS011;6597;52.218;9.882;2023-08-24T12:06:10;9.18;;;3.85;;
13061;SDS011;6597;52.218;9.882;2023-08-24T12:08:39;6.22;;;3.10;;
13061;SDS011;6597;52.218;9.882;2023-08-24T12:11:11;6.30;;;3.47;;
13061;SDS011;6597;52.218;9.882;2023-08-24T12:13:42;8.50;;;3.53;;
13061;SDS011;6597;52.218;9.882;2023-08-24T12:16:10;8.30;;;3.33;;
13061;SDS011;6597;52.218;9.882;2023-08-24T12:18:45;9.05;;;3.65;;
13061;SDS011;6597;52.218;9.882;2023-08-24T12:21:13;6.30;;;3.50;;
13061;SDS011;6597;52.218;9.882;2023-08-24T12:23:41;6.15;;;3.25;;
13061;SDS011;6597;52.218;9.882;2023-08-24T12:26:08;5.95;;;3.40;;
13061;SDS011;6597;52.218;9.882;2023-08-24T12:28:34;8.63;;;2.75;;
13061;SDS011;6597;52.218;9.882;2023-08-24T12:31:01;7.57;;;3.30;;
13061;SDS011;6597;52.218;9.882;2023-08-24T12:33:29;5.35;;;3.28;;
13061;SDS011;6597;52.218;9.882;2023-08-24T12:35:57;8.55;;;3.58;;
13061;SDS011;6597;52.218;9.882;2023-08-24T12:38:24;6.75;;;3.60;;
13061;SDS011;6597;52.218;9.882;2023-08-24T12:40:53;7.97;;;3.78;;
13061;SDS011;6597;52.218;9.882;2023-08-24T12:43:20;8.02;;;3.95;;
13061;SDS011;6597;52.218;9.882;2023-08-24T12:45:46;8.65;;;3.42;;
13061;SDS011;6597;52.218;9.882;2023-08-24T12:48:14;5.35;;;3.42;;
13061;SDS011;6597;52.218;9.882;2023-08-24T12:50:40;5.88;;;3.83;;
13061;SDS011;6597;52.218;9.882;2023-08-24T12:53:07;6.03;;;3.22;;
13061;SDS011;6597;52.218;9.882;2023-08-24T12:55:34;6.72;;;3.35;;
13061;SDS011;6597;52.218;9.882;2023-08-24T12:58:04;7.10;;;3.70;;
13061;SDS011;6597;52.218;9.882;2023-08-24T13:00:30;12.90;;;3.50;;
13061;SDS011;6597;52.218;9.882;2023-08-24T13:02:57;9.80;;;4.32;;
13061;SDS011;6597;52.218;9.882;2023-08-24T13:05:24;7.28;;;3.45;;
13061;SDS011;6597;52.218;9.882;2023-08-24T13:07:50;8.20;;;3.63;;
13061;SDS011;6597;52.218;9.882;2023-08-24T13:10:17;10.27;;;4.30;;
13061;SDS011;6597;52.218;9.882;2023-08-24T13:12:44;7.70;;;3.40;;
13061;SDS011;6597;52.218;9.882;2023-08-24T13:15:12;8.30;;;3.70;;
13061;SDS011;6597;52.218;9.882;2023-08-24T13:17:38;10.45;;;4.13;;
13061;SDS011;6597;52.218;9.882;2023-08-24T13:20:05;11.80;;;4.07;;
13061;SDS011;6597;52.218;9.882;2023-08-24T13:22:33;14.35;;;3.90;;
13061;SDS011;6597;52.218;9.882;2023-08-24T13:25:00;7.25;;;3.20;;
13061;SDS011;6597;52.218;9.882;2023-08-24T13:27:26;8.20;;;3.75;;
13061;SDS011;6597;52.218;9.882;2023-08-24T13:29:53;7.07;;;3.47;;
13061;SDS011;6597;52.218;9.882;2023-08-24T13:32:23;6.93;;;3.30;;
13061;SDS011;6597;52.218;9.882;2023-08-24T13:34:49;9.25;;;3.50;;
13061;SDS011;6597;52.218;9.882;2023-08-24T13:37:16;9.95;;;3.30;;
13061;SDS011;6597;52.218;9.882;2023-08-24T13:39:43;9.02;;;3.53;;
13061;SDS011;6597;52.218;9.882;2023-08-24T13:42:10;6.18;;;3.38;;
13061;SDS011;6597;52.218;9.882;2023-08-24T13:44:38;6.72;;;3.75;;
13061;SDS011;6597;52.218;9.882;2023-08-24T13:47:04;9.77;;;3.92;;
13061;SDS011;6597;52.218;9.882;2023-08-24T13:49:32;7.72;;;3.72;;
13061;SDS011;6597;52.218;9.882;2023-08-24T13:51:59;9.70;;;4.13;;
13061;SDS011;6597;52.218;9.882;2023-08-24T13:54:26;11.55;;;4.03;;
13061;SDS011;6597;52.218;9.882;2023-08-24T13:56:52;7.80;;;3.58;;
13061;SDS011;6597;52.218;9.882;2023-08-24T13:59:19;9.25;;;3.72;;
13061;SDS011;6597;52.218;9.882;2023-08-24T14:01:47;4.53;;;2.72;;
13061;SDS011;6597;52.218;9.882;2023-08-24T14:04:14;7.43;;;3.30;;
13061;SDS011;6597;52.218;9.882;2023-08-24T14:06:42;13.73;;;4.47;;
13061;SDS011;6597;52.218;9.882;2023-08-24T14:09:08;7.97;;;3.67;;
13061;SDS011;6597;52.218;9.882;2023-08-24T14:11:35;11.10;;;3.42;;
13061;SDS011;6597;52.218;9.882;2023-08-24T14:14:02;7.68;;;3.03;;
13061;SDS011;6597;52.218;9.882;2023-08-24T14:16:28;9.95;;;3.80;;
13061;SDS011;6597;52.218;9.882;2023-08-24T14:18:55;10.68;;;3.55;;
13061;SDS011;6597;52.218;9.882;2023-08-24T14:21:21;13.05;;;3.78;;
13061;SDS011;6597;52.218;9.882;2023-08-24T14:23:50;9.98;;;4.13;;
13061;SDS011;6597;52.218;9.882;2023-08-24T14:26:16;8.32;;;3.35;;
13061;SDS011;6597;52.218;9.882;2023-08-24T14:28:50;11.07;;;3.42;;
13061;SDS011;6597;52.218;9.882;2023-08-24T14:31:18;11.88;;;4.03;;
13061;SDS011;6597;52.218;9.882;2023-08-24T14:33:45;15.15;;;4.18;;
13061;SDS011;6597;52.218;9.882;2023-08-24T14:36:12;13.25;;;3.65;;
13061;SDS011;6597;52.218;9.882;2023-08-24T14:38:38;12.45;;;3.67;;
13061;SDS011;6597;52.218;9.882;2023-08-24T14:41:08;10.90;;;3.60;;
13061;SDS011;6597;52.218;9.882;2023-08-24T14:43:35;14.10;;;3.78;;
13061;SDS011;6597;52.218;9.882;2023-08-24T14:46:02;14.23;;;3.75;;
13061;SDS011;6597;52.218;9.882;2023-08-24T14:48:29;21.88;;;4.32;;
13061;SDS011;6597;52.218;9.882;2023-08-24T14:50:56;11.48;;;3.45;;